sensor_id;sensor_type;location;lat;lon;timestamp;temperature;humidity
8475;DHT22;4274;52.012;8.448;2023-09-30T00:00:45;12.80;99.90
8475;DHT22;4274;52.012;8.448;2023-09-30T00:03:11;12.80;99.90
8475;DHT22;4274;52.012;8.448;2023-09-30T00:05:37;12.80;99.90
8475;DHT22;4274;52.012;8.448;2023-09-30T00:08:04;12.80;99.90
8475;DHT22;4274;52.012;8.448;2023-09-30T00:10:30;12.70;99.90
8475;DHT22;4274;52.012;8.448;2023-09-30T00:12:56;12.70;99.90
8475;DHT22;4274;52.012;8.448;2023-09-30T00:15:22;12.60;99.90
8475;DHT22;4274;52.012;8.448;2023-09-30T00:17:48;12.50;99.90
8475;DHT22;4274;52.012;8.448;2023-09-30T00:20:13;12.50;99.90
8475;DHT22;4274;52.012;8.448;2023-09-30T00:22:40;12.40;99.90
8475;DHT22;4274;52.012;8.448;2023-09-30T00:25:07;12.30;99.90
8475;DHT22;4274;52.012;8.448;2023-09-30T00:27:32;12.20;99.90
8475;DHT22;4274;52.012;8.448;2023-09-30T00:29:58;12.20;99.90
8475;DHT22;4274;52.012;8.448;2023-09-30T00:32:23;12.10;99.90
8475;DHT22;4274;52.012;8.448;2023-09-30T00:34:49;12.10;99.90
8475;DHT22;4274;52.012;8.448;2023-09-30T00:37:16;12.00;99.90
8475;DHT22;4274;52.012;8.448;2023-09-30T00:39:42;12.00;99.90
8475;DHT22;4274;52.012;8.448;2023-09-30T00:42:07;11.90;99.90
8475;DHT22;4274;52.012;8.448;2023-09-30T00:44:33;11.90;99.90
8475;DHT22;4274;52.012;8.448;2023-09-30T00:46:59;11.90;99.90
8475;DHT22;4274;52.012;8.448;2023-09-30T00:49:25;11.90;99.90
8475;DHT22;4274;52.012;8.448;2023-09-30T00:51:51;11.90;99.90
8475;DHT22;4274;52.012;8.448;2023-09-30T00:54:17;11.80;99.90
8475;DHT22;4274;52.012;8.448;2023-09-30T00:56:45;11.80;99.90
8475;DHT22;4274;52.012;8.448;2023-09-30T00:59:13;11.70;99.90
8475;DHT22;4274;52.012;8.448;2023-09-30T01:01:38;11.70;99.90
8475;DHT22;4274;52.012;8.448;2023-09-30T01:04:05;11.60;99.90
8475;DHT22;4274;52.012;8.448;2023-09-30T01:06:31;11.60;99.90
8475;DHT22;4274;52.012;8.448;2023-09-30T01:08:57;11.60;99.90
8475;DHT22;4274;52.012;8.448;2023-09-30T01:11:22;11.60;99.90
8475;DHT22;4274;52.012;8.448;2023-09-30T01:13:48;11.60;99.90
8475;DHT22;4274;52.012;8.448;2023-09-30T01:16:15;11.60;99.90
8475;DHT22;4274;52.012;8.448;2023-09-30T01:18:41;11.60;99.90
8475;DHT22;4274;52.012;8.448;2023-09-30T01:21:08;11.60;99.90
8475;DHT22;4274;52.012;8.448;2023-09-30T01:23:35;11.70;99.90
8475;DHT22;4274;52.012;8.448;2023-09-30T01:26:06;11.80;99.90
8475;DHT22;4274;52.012;8.448;2023-09-30T01:28:32;11.90;99.90
8475;DHT22;4274;52.012;8.448;2023-09-30T01:30:58;12.00;99.90
8475;DHT22;4274;52.012;8.448;2023-09-30T01:33:24;12.00;99.90
8475;DHT22;4274;52.012;8.448;2023-09-30T01:35:50;12.00;99.90
8475;DHT22;4274;52.012;8.448;2023-09-30T01:38:15;12.10;99.90
8475;DHT22;4274;52.012;8.448;2023-09-30T01:40:41;12.10;99.90
8475;DHT22;4274;52.012;8.448;2023-09-30T01:43:08;12.10;99.90
8475;DHT22;4274;52.012;8.448;2023-09-30T01:45:33;12.10;99.90
8475;DHT22;4274;52.012;8.448;2023-09-30T01:48:00;12.20;99.90
8475;DHT22;4274;52.012;8.448;2023-09-30T01:50:26;12.10;99.90
8475;DHT22;4274;52.012;8.448;2023-09-30T01:52:51;12.20;99.90
8475;DHT22;4274;52.012;8.448;2023-09-30T01:55:17;12.10;99.90
8475;DHT22;4274;52.012;8.448;2023-09-30T01:57:43;12.20;99.90
8475;DHT22;4274;52.012;8.448;2023-09-30T02:00:08;12.10;99.90
8475;DHT22;4274;52.012;8.448;2023-09-30T02:02:35;12.10;99.90
8475;DHT22;4274;52.012;8.448;2023-09-30T02:05:02;12.10;99.90
8475;DHT22;4274;52.012;8.448;2023-09-30T02:07:28;12.10;99.90
8475;DHT22;4274;52.012;8.448;2023-09-30T02:09:54;12.10;99.90
8475;DHT22;4274;52.012;8.448;2023-09-30T02:12:20;12.10;99.90
8475;DHT22;4274;52.012;8.448;2023-09-30T02:14:46;12.10;99.90
8475;DHT22;4274;52.012;8.448;2023-09-30T02:17:12;12.10;99.90
8475;DHT22;4274;52.012;8.448;2023-09-30T02:19:39;12.10;99.90
8475;DHT22;4274;52.012;8.448;2023-09-30T02:22:06;12.10;99.90
8475;DHT22;4274;52.012;8.448;2023-09-30T02:24:31;12.00;99.90
8475;DHT22;4274;52.012;8.448;2023-09-30T02:26:57;12.00;99.90
8475;DHT22;4274;52.012;8.448;2023-09-30T02:29:23;12.00;99.90
8475;DHT22;4274;52.012;8.448;2023-09-30T02:31:49;12.00;99.90
8475;DHT22;4274;52.012;8.448;2023-09-30T02:34:14;12.00;99.90
8475;DHT22;4274;52.012;8.448;2023-09-30T02:36:40;12.00;99.90
8475;DHT22;4274;52.012;8.448;2023-09-30T02:39:07;12.00;99.90
8475;DHT22;4274;52.012;8.448;2023-09-30T02:41:35;12.00;99.90
8475;DHT22;4274;52.012;8.448;2023-09-30T02:44:01;12.00;99.90
8475;DHT22;4274;52.012;8.448;2023-09-30T02:46:26;11.90;99.90
8475;DHT22;4274;52.012;8.448;2023-09-30T02:48:53;11.90;99.90
8475;DHT22;4274;52.012;8.448;2023-09-30T02:51:19;11.90;99.90
8475;DHT22;4274;52.012;8.448;2023-09-30T02:53:45;11.90;99.90
8475;DHT22;4274;52.012;8.448;2023-09-30T02:56:11;11.90;99.90
8475;DHT22;4274;52.012;8.448;2023-09-30T02:58:37;11.80;99.90
8475;DHT22;4274;52.012;8.448;2023-09-30T03:01:03;11.90;99.90
8475;DHT22;4274;52.012;8.448;2023-09-30T03:03:29;11.90;99.90
8475;DHT22;4274;52.012;8.448;2023-09-30T03:05:56;11.80;99.90
8475;DHT22;4274;52.012;8.448;2023-09-30T03:08:22;11.80;99.90
8475;DHT22;4274;52.012;8.448;2023-09-30T03:10:50;11.80;99.90
8475;DHT22;4274;52.012;8.448;2023-09-30T03:13:16;11.70;99.90
8475;DHT22;4274;52.012;8.448;2023-09-30T03:15:44;11.70;99.90
8475;DHT22;4274;52.012;8.448;2023-09-30T03:18:09;11.60;99.90
8475;DHT22;4274;52.012;8.448;2023-09-30T03:20:35;11.60;99.90
8475;DHT22;4274;52.012;8.448;2023-09-30T03:23:05;11.60;99.90
8475;DHT22;4274;52.012;8.448;2023-09-30T03:25:31;11.60;99.90
8475;DHT22;4274;52.012;8.448;2023-09-30T03:27:56;11.60;99.90
8475;DHT22;4274;52.012;8.448;2023-09-30T03:30:22;11.50;99.90
8475;DHT22;4274;52.012;8.448;2023-09-30T03:32:48;11.40;99.90
8475;DHT22;4274;52.012;8.448;2023-09-30T03:35:13;11.40;99.90
8475;DHT22;4274;52.012;8.448;2023-09-30T03:37:48;11.40;99.90
8475;DHT22;4274;52.012;8.448;2023-09-30T03:40:14;11.40;99.90
8475;DHT22;4274;52.012;8.448;2023-09-30T03:42:44;11.40;99.90
8475;DHT22;4274;52.012;8.448;2023-09-30T03:45:10;11.40;99.90
8475;DHT22;4274;52.012;8.448;2023-09-30T03:47:37;11.40;99.90
8475;DHT22;4274;52.012;8.448;2023-09-30T03:50:04;11.30;99.90
8475;DHT22;4274;52.012;8.448;2023-09-30T03:52:31;11.30;99.90
8475;DHT22;4274;52.012;8.448;2023-09-30T03:55:01;11.20;99.90
8475;DHT22;4274;52.012;8.448;2023-09-30T03:57:31;11.20;99.90
8475;DHT22;4274;52.012;8.448;2023-09-30T03:59:57;11.20;99.90
8475;DHT22;4274;52.012;8.448;2023-09-30T04:02:22;11.20;99.90
8475;DHT22;4274;52.012;8.448;2023-09-30T04:04:48;11.10;99.90
8475;DHT22;4274;52.012;8.448;2023-09-30T04:07:16;11.10;99.90
8475;DHT22;4274;52.012;8.448;2023-09-30T04:09:42;11.00;99.90
8475;DHT22;4274;52.012;8.448;2023-09-30T04:12:07;11.00;99.90
8475;DHT22;4274;52.012;8.448;2023-09-30T04:14:33;10.90;99.90
8475;DHT22;4274;52.012;8.448;2023-09-30T04:16:59;10.80;99.90
8475;DHT22;4274;52.012;8.448;2023-09-30T04:19:24;10.80;99.90
8475;DHT22;4274;52.012;8.448;2023-09-30T04:21:50;10.80;99.90
8475;DHT22;4274;52.012;8.448;2023-09-30T04:24:15;10.80;99.90
8475;DHT22;4274;52.012;8.448;2023-09-30T04:26:41;10.80;99.90
8475;DHT22;4274;52.012;8.448;2023-09-30T04:29:07;10.80;99.90
8475;DHT22;4274;52.012;8.448;2023-09-30T04:31:37;10.80;99.90
8475;DHT22;4274;52.012;8.448;2023-09-30T04:34:04;10.80;99.90
8475;DHT22;4274;52.012;8.448;2023-09-30T04:36:30;10.70;99.90
8475;DHT22;4274;52.012;8.448;2023-09-30T04:38:56;10.70;99.90
8475;DHT22;4274;52.012;8.448;2023-09-30T04:41:22;10.70;99.90
8475;DHT22;4274;52.012;8.448;2023-09-30T04:43:47;10.80;99.90
8475;DHT22;4274;52.012;8.448;2023-09-30T04:46:13;10.80;99.90
8475;DHT22;4274;52.012;8.448;2023-09-30T04:48:40;10.70;99.90
8475;DHT22;4274;52.012;8.448;2023-09-30T04:51:09;10.70;99.90
8475;DHT22;4274;52.012;8.448;2023-09-30T04:53:34;10.70;99.90
8475;DHT22;4274;52.012;8.448;2023-09-30T04:56:00;10.60;99.90
8475;DHT22;4274;52.012;8.448;2023-09-30T04:58:26;10.60;99.90
8475;DHT22;4274;52.012;8.448;2023-09-30T05:00:52;10.60;99.90
8475;DHT22;4274;52.012;8.448;2023-09-30T05:03:18;10.70;99.90
8475;DHT22;4274;52.012;8.448;2023-09-30T05:05:44;10.80;99.90
8475;DHT22;4274;52.012;8.448;2023-09-30T05:08:10;10.80;99.90
8475;DHT22;4274;52.012;8.448;2023-09-30T05:10:38;10.80;99.90
8475;DHT22;4274;52.012;8.448;2023-09-30T05:13:03;10.80;99.90
8475;DHT22;4274;52.012;8.448;2023-09-30T05:15:29;10.70;99.90
8475;DHT22;4274;52.012;8.448;2023-09-30T05:17:57;10.70;99.90
8475;DHT22;4274;52.012;8.448;2023-09-30T05:20:23;10.60;99.90
8475;DHT22;4274;52.012;8.448;2023-09-30T05:22:49;10.60;99.90
8475;DHT22;4274;52.012;8.448;2023-09-30T05:25:16;10.50;99.90
8475;DHT22;4274;52.012;8.448;2023-09-30T05:27:45;10.50;99.90
8475;DHT22;4274;52.012;8.448;2023-09-30T05:30:13;10.50;99.90
8475;DHT22;4274;52.012;8.448;2023-09-30T05:32:40;10.60;99.90
8475;DHT22;4274;52.012;8.448;2023-09-30T05:35:06;10.70;99.90
8475;DHT22;4274;52.012;8.448;2023-09-30T05:37:41;10.60;99.90
8475;DHT22;4274;52.012;8.448;2023-09-30T05:40:08;10.70;99.90
8475;DHT22;4274;52.012;8.448;2023-09-30T05:42:47;10.70;99.90
8475;DHT22;4274;52.012;8.448;2023-09-30T05:45:14;10.80;99.90
8475;DHT22;4274;52.012;8.448;2023-09-30T05:47:40;10.80;99.90
8475;DHT22;4274;52.012;8.448;2023-09-30T05:50:07;10.90;99.90
8475;DHT22;4274;52.012;8.448;2023-09-30T05:52:34;11.00;99.90
8475;DHT22;4274;52.012;8.448;2023-09-30T05:54:59;11.00;99.90
8475;DHT22;4274;52.012;8.448;2023-09-30T05:57:27;11.00;99.90
8475;DHT22;4274;52.012;8.448;2023-09-30T05:59:52;11.00;99.90
8475;DHT22;4274;52.012;8.448;2023-09-30T06:02:18;11.00;99.90
8475;DHT22;4274;52.012;8.448;2023-09-30T06:04:43;11.10;99.90
8475;DHT22;4274;52.012;8.448;2023-09-30T06:07:11;11.10;99.90
8475;DHT22;4274;52.012;8.448;2023-09-30T06:09:37;11.00;99.90
8475;DHT22;4274;52.012;8.448;2023-09-30T06:12:03;11.10;99.90
8475;DHT22;4274;52.012;8.448;2023-09-30T06:14:32;11.10;99.90
8475;DHT22;4274;52.012;8.448;2023-09-30T06:16:58;11.20;99.90
8475;DHT22;4274;52.012;8.448;2023-09-30T06:19:24;11.20;99.90
8475;DHT22;4274;52.012;8.448;2023-09-30T06:21:51;11.20;99.90
8475;DHT22;4274;52.012;8.448;2023-09-30T06:24:17;11.20;99.90
8475;DHT22;4274;52.012;8.448;2023-09-30T06:26:45;11.20;99.90
8475;DHT22;4274;52.012;8.448;2023-09-30T06:29:10;11.30;99.90
8475;DHT22;4274;52.012;8.448;2023-09-30T06:31:37;11.30;99.90
8475;DHT22;4274;52.012;8.448;2023-09-30T06:34:02;11.30;99.90
8475;DHT22;4274;52.012;8.448;2023-09-30T06:36:29;11.40;99.90
8475;DHT22;4274;52.012;8.448;2023-09-30T06:38:55;11.40;99.90
8475;DHT22;4274;52.012;8.448;2023-09-30T06:41:20;11.40;99.90
8475;DHT22;4274;52.012;8.448;2023-09-30T06:43:46;11.40;99.90
8475;DHT22;4274;52.012;8.448;2023-09-30T06:46:12;11.50;99.90
8475;DHT22;4274;52.012;8.448;2023-09-30T06:48:38;11.50;99.90
8475;DHT22;4274;52.012;8.448;2023-09-30T06:51:06;11.60;99.90
8475;DHT22;4274;52.012;8.448;2023-09-30T06:53:31;11.70;99.90
8475;DHT22;4274;52.012;8.448;2023-09-30T06:55:57;11.80;99.90
8475;DHT22;4274;52.012;8.448;2023-09-30T06:58:22;11.80;99.90
8475;DHT22;4274;52.012;8.448;2023-09-30T07:00:52;11.90;99.90
8475;DHT22;4274;52.012;8.448;2023-09-30T07:03:19;11.90;99.90
8475;DHT22;4274;52.012;8.448;2023-09-30T07:05:45;11.90;99.90
8475;DHT22;4274;52.012;8.448;2023-09-30T07:08:16;11.90;99.90
8475;DHT22;4274;52.012;8.448;2023-09-30T07:10:42;12.00;99.90
8475;DHT22;4274;52.012;8.448;2023-09-30T07:13:07;12.00;99.90
8475;DHT22;4274;52.012;8.448;2023-09-30T07:15:33;12.10;99.90
8475;DHT22;4274;52.012;8.448;2023-09-30T07:17:58;12.20;99.90
8475;DHT22;4274;52.012;8.448;2023-09-30T07:20:24;12.20;99.90
8475;DHT22;4274;52.012;8.448;2023-09-30T07:22:50;12.20;99.90
8475;DHT22;4274;52.012;8.448;2023-09-30T07:25:16;12.30;99.90
8475;DHT22;4274;52.012;8.448;2023-09-30T07:27:45;12.30;99.90
8475;DHT22;4274;52.012;8.448;2023-09-30T07:30:14;12.40;99.90
8475;DHT22;4274;52.012;8.448;2023-09-30T07:32:43;12.50;99.90
8475;DHT22;4274;52.012;8.448;2023-09-30T07:35:09;12.60;99.90
8475;DHT22;4274;52.012;8.448;2023-09-30T07:37:35;12.70;99.90
8475;DHT22;4274;52.012;8.448;2023-09-30T07:40:01;12.80;99.90
8475;DHT22;4274;52.012;8.448;2023-09-30T07:42:26;12.90;99.90
8475;DHT22;4274;52.012;8.448;2023-09-30T07:44:52;12.90;99.90
8475;DHT22;4274;52.012;8.448;2023-09-30T07:47:19;13.00;99.90
8475;DHT22;4274;52.012;8.448;2023-09-30T07:49:44;13.20;99.90
8475;DHT22;4274;52.012;8.448;2023-09-30T07:52:10;13.30;99.90
8475;DHT22;4274;52.012;8.448;2023-09-30T07:54:36;13.50;99.90
8475;DHT22;4274;52.012;8.448;2023-09-30T07:57:02;13.60;99.90
8475;DHT22;4274;52.012;8.448;2023-09-30T07:59:27;13.80;99.90
8475;DHT22;4274;52.012;8.448;2023-09-30T08:01:53;14.00;99.90
8475;DHT22;4274;52.012;8.448;2023-09-30T08:04:19;14.20;99.90
8475;DHT22;4274;52.012;8.448;2023-09-30T08:06:44;14.30;99.90
8475;DHT22;4274;52.012;8.448;2023-09-30T08:09:13;14.30;99.90
8475;DHT22;4274;52.012;8.448;2023-09-30T08:11:38;14.30;99.90
8475;DHT22;4274;52.012;8.448;2023-09-30T08:14:05;14.30;99.90
8475;DHT22;4274;52.012;8.448;2023-09-30T08:16:38;14.40;99.90
8475;DHT22;4274;52.012;8.448;2023-09-30T08:19:04;14.40;99.90
8475;DHT22;4274;52.012;8.448;2023-09-30T08:21:30;14.50;99.90
8475;DHT22;4274;52.012;8.448;2023-09-30T08:23:57;14.60;99.90
8475;DHT22;4274;52.012;8.448;2023-09-30T08:26:22;14.60;99.90
8475;DHT22;4274;52.012;8.448;2023-09-30T08:28:48;14.80;99.90
8475;DHT22;4274;52.012;8.448;2023-09-30T08:31:14;14.90;99.90
8475;DHT22;4274;52.012;8.448;2023-09-30T08:33:40;15.10;99.90
8475;DHT22;4274;52.012;8.448;2023-09-30T08:36:08;15.20;99.90
8475;DHT22;4274;52.012;8.448;2023-09-30T08:38:36;15.40;99.90
8475;DHT22;4274;52.012;8.448;2023-09-30T08:41:02;15.70;99.90
8475;DHT22;4274;52.012;8.448;2023-09-30T08:43:28;15.70;99.90
8475;DHT22;4274;52.012;8.448;2023-09-30T08:46:02;15.80;99.90
8475;DHT22;4274;52.012;8.448;2023-09-30T08:48:32;15.90;99.90
8475;DHT22;4274;52.012;8.448;2023-09-30T08:50:59;16.10;99.90
8475;DHT22;4274;52.012;8.448;2023-09-30T08:53:26;16.30;99.90
8475;DHT22;4274;52.012;8.448;2023-09-30T08:55:55;16.40;99.90
8475;DHT22;4274;52.012;8.448;2023-09-30T08:58:27;16.60;99.90
8475;DHT22;4274;52.012;8.448;2023-09-30T09:00:53;16.70;99.90
8475;DHT22;4274;52.012;8.448;2023-09-30T09:03:19;16.80;99.90
8475;DHT22;4274;52.012;8.448;2023-09-30T09:05:46;16.80;99.90
8475;DHT22;4274;52.012;8.448;2023-09-30T09:08:12;16.80;99.90
8475;DHT22;4274;52.012;8.448;2023-09-30T09:10:56;16.90;99.90
8475;DHT22;4274;52.012;8.448;2023-09-30T09:13:23;17.00;99.90
8475;DHT22;4274;52.012;8.448;2023-09-30T09:15:49;17.10;99.90
8475;DHT22;4274;52.012;8.448;2023-09-30T09:18:33;17.30;99.90
8475;DHT22;4274;52.012;8.448;2023-09-30T09:21:28;17.50;99.90
8475;DHT22;4274;52.012;8.448;2023-09-30T09:23:56;17.70;99.90
8475;DHT22;4274;52.012;8.448;2023-09-30T09:26:25;17.80;99.90
8475;DHT22;4274;52.012;8.448;2023-09-30T09:29:00;18.00;99.90
8475;DHT22;4274;52.012;8.448;2023-09-30T09:31:31;18.10;99.90
8475;DHT22;4274;52.012;8.448;2023-09-30T09:33:57;18.30;99.90
8475;DHT22;4274;52.012;8.448;2023-09-30T09:36:39;18.40;99.90
8475;DHT22;4274;52.012;8.448;2023-09-30T09:39:05;18.50;99.90
8475;DHT22;4274;52.012;8.448;2023-09-30T09:41:31;18.70;99.90
8475;DHT22;4274;52.012;8.448;2023-09-30T09:43:59;18.80;99.90
8475;DHT22;4274;52.012;8.448;2023-09-30T09:46:25;18.70;99.90
8475;DHT22;4274;52.012;8.448;2023-09-30T09:48:53;18.60;99.90
8475;DHT22;4274;52.012;8.448;2023-09-30T09:51:20;18.50;99.90
8475;DHT22;4274;52.012;8.448;2023-09-30T09:53:46;18.60;99.90
8475;DHT22;4274;52.012;8.448;2023-09-30T09:56:14;18.60;99.90
8475;DHT22;4274;52.012;8.448;2023-09-30T09:58:40;18.80;99.90
8475;DHT22;4274;52.012;8.448;2023-09-30T10:01:11;19.00;99.90
8475;DHT22;4274;52.012;8.448;2023-09-30T10:03:40;19.50;99.90
8475;DHT22;4274;52.012;8.448;2023-09-30T10:06:06;20.20;99.90
8475;DHT22;4274;52.012;8.448;2023-09-30T10:08:42;20.70;99.90
8475;DHT22;4274;52.012;8.448;2023-09-30T10:11:16;21.00;99.90
8475;DHT22;4274;52.012;8.448;2023-09-30T10:13:56;21.40;99.90
8475;DHT22;4274;52.012;8.448;2023-09-30T10:19:19;21.70;99.90
8475;DHT22;4274;52.012;8.448;2023-09-30T10:24:45;22.00;99.90
8475;DHT22;4274;52.012;8.448;2023-09-30T10:38:58;22.10;99.90
8475;DHT22;4274;52.012;8.448;2023-09-30T10:41:00;22.20;99.90
8475;DHT22;4274;52.012;8.448;2023-09-30T10:43:32;22.20;99.90
8475;DHT22;4274;52.012;8.448;2023-09-30T10:45:59;22.50;99.90
8475;DHT22;4274;52.012;8.448;2023-09-30T10:53:17;22.70;99.90
8475;DHT22;4274;52.012;8.448;2023-09-30T10:55:45;22.50;99.90
8475;DHT22;4274;52.012;8.448;2023-09-30T10:58:14;22.60;99.90
8475;DHT22;4274;52.012;8.448;2023-09-30T11:00:42;23.20;99.90
8475;DHT22;4274;52.012;8.448;2023-09-30T11:03:22;24.20;99.90
8475;DHT22;4274;52.012;8.448;2023-09-30T11:05:48;24.90;99.90
8475;DHT22;4274;52.012;8.448;2023-09-30T11:08:15;24.90;99.90
8475;DHT22;4274;52.012;8.448;2023-09-30T11:10:52;25.00;99.90
8475;DHT22;4274;52.012;8.448;2023-09-30T11:13:20;25.40;99.90
8475;DHT22;4274;52.012;8.448;2023-09-30T11:15:46;25.00;99.90
8475;DHT22;4274;52.012;8.448;2023-09-30T11:18:18;24.30;99.90
8475;DHT22;4274;52.012;8.448;2023-09-30T11:20:44;24.30;99.90
8475;DHT22;4274;52.012;8.448;2023-09-30T11:23:11;25.20;99.90
8475;DHT22;4274;52.012;8.448;2023-09-30T11:25:38;26.40;99.90
8475;DHT22;4274;52.012;8.448;2023-09-30T11:28:18;26.60;99.90
8475;DHT22;4274;52.012;8.448;2023-09-30T11:31:01;25.80;99.90
8475;DHT22;4274;52.012;8.448;2023-09-30T11:33:31;24.80;99.90
8475;DHT22;4274;52.012;8.448;2023-09-30T11:36:05;24.60;99.90
8475;DHT22;4274;52.012;8.448;2023-09-30T11:38:32;24.40;99.90
8475;DHT22;4274;52.012;8.448;2023-09-30T11:41:07;24.00;99.90
8475;DHT22;4274;52.012;8.448;2023-09-30T11:43:33;23.70;99.90
8475;DHT22;4274;52.012;8.448;2023-09-30T11:46:09;23.40;99.90
8475;DHT22;4274;52.012;8.448;2023-09-30T11:48:37;23.70;99.90
8475;DHT22;4274;52.012;8.448;2023-09-30T11:51:03;24.30;99.90
8475;DHT22;4274;52.012;8.448;2023-09-30T11:53:35;25.40;99.90
8475;DHT22;4274;52.012;8.448;2023-09-30T11:56:01;26.60;99.90
8475;DHT22;4274;52.012;8.448;2023-09-30T11:58:32;27.10;99.90
8475;DHT22;4274;52.012;8.448;2023-09-30T12:00:58;26.90;99.90
8475;DHT22;4274;52.012;8.448;2023-09-30T12:03:25;26.10;99.90
8475;DHT22;4274;52.012;8.448;2023-09-30T12:05:55;25.60;99.90
8475;DHT22;4274;52.012;8.448;2023-09-30T12:08:22;26.10;99.90
8475;DHT22;4274;52.012;8.448;2023-09-30T12:10:48;26.70;99.90
8475;DHT22;4274;52.012;8.448;2023-09-30T12:13:14;27.20;99.90
8475;DHT22;4274;52.012;8.448;2023-09-30T12:15:41;27.70;99.90
8475;DHT22;4274;52.012;8.448;2023-09-30T12:18:06;27.80;99.90
8475;DHT22;4274;52.012;8.448;2023-09-30T12:20:32;27.40;99.90
8475;DHT22;4274;52.012;8.448;2023-09-30T12:22:58;27.20;99.90
8475;DHT22;4274;52.012;8.448;2023-09-30T12:25:24;27.30;99.90
8475;DHT22;4274;52.012;8.448;2023-09-30T12:27:50;27.40;99.90
8475;DHT22;4274;52.012;8.448;2023-09-30T12:30:16;27.50;99.90
8475;DHT22;4274;52.012;8.448;2023-09-30T12:32:45;27.80;99.90
8475;DHT22;4274;52.012;8.448;2023-09-30T12:35:11;27.60;99.90
8475;DHT22;4274;52.012;8.448;2023-09-30T12:37:37;26.80;99.90
8475;DHT22;4274;52.012;8.448;2023-09-30T12:40:05;26.20;99.90
8475;DHT22;4274;52.012;8.448;2023-09-30T12:42:32;25.30;99.90
8475;DHT22;4274;52.012;8.448;2023-09-30T12:45:00;24.50;99.90
8475;DHT22;4274;52.012;8.448;2023-09-30T12:47:26;23.40;99.90
8475;DHT22;4274;52.012;8.448;2023-09-30T12:49:52;23.10;99.90
8475;DHT22;4274;52.012;8.448;2023-09-30T12:52:19;23.70;99.90
8475;DHT22;4274;52.012;8.448;2023-09-30T12:54:45;24.30;99.90
8475;DHT22;4274;52.012;8.448;2023-09-30T12:57:11;24.80;99.90
8475;DHT22;4274;52.012;8.448;2023-09-30T12:59:39;25.10;99.90
8475;DHT22;4274;52.012;8.448;2023-09-30T13:02:04;24.60;99.90
8475;DHT22;4274;52.012;8.448;2023-09-30T13:04:31;23.80;99.90
8475;DHT22;4274;52.012;8.448;2023-09-30T13:06:56;23.00;99.90
8475;DHT22;4274;52.012;8.448;2023-09-30T13:09:22;22.40;99.90
8475;DHT22;4274;52.012;8.448;2023-09-30T13:11:48;21.70;99.90
8475;DHT22;4274;52.012;8.448;2023-09-30T13:14:14;21.50;99.90
8475;DHT22;4274;52.012;8.448;2023-09-30T13:16:39;21.90;99.90
8475;DHT22;4274;52.012;8.448;2023-09-30T13:19:05;22.60;99.90
8475;DHT22;4274;52.012;8.448;2023-09-30T13:21:31;23.50;99.90
8475;DHT22;4274;52.012;8.448;2023-09-30T13:23:56;24.20;99.90
8475;DHT22;4274;52.012;8.448;2023-09-30T13:26:22;24.30;99.90
8475;DHT22;4274;52.012;8.448;2023-09-30T13:28:47;24.10;99.90
8475;DHT22;4274;52.012;8.448;2023-09-30T13:31:13;24.30;99.90
8475;DHT22;4274;52.012;8.448;2023-09-30T13:33:39;24.80;99.90
8475;DHT22;4274;52.012;8.448;2023-09-30T13:36:04;24.90;99.90
8475;DHT22;4274;52.012;8.448;2023-09-30T13:38:30;24.90;99.90
8475;DHT22;4274;52.012;8.448;2023-09-30T13:40:56;25.20;99.90
8475;DHT22;4274;52.012;8.448;2023-09-30T13:43:21;25.50;99.90
8475;DHT22;4274;52.012;8.448;2023-09-30T13:45:47;25.30;99.90
8475;DHT22;4274;52.012;8.448;2023-09-30T13:48:14;24.40;99.90
8475;DHT22;4274;52.012;8.448;2023-09-30T13:50:39;23.40;99.90
8475;DHT22;4274;52.012;8.448;2023-09-30T13:53:05;22.60;99.90
8475;DHT22;4274;52.012;8.448;2023-09-30T13:55:30;22.10;99.90
8475;DHT22;4274;52.012;8.448;2023-09-30T13:57:56;21.70;99.90
8475;DHT22;4274;52.012;8.448;2023-09-30T14:00:22;21.30;99.90
8475;DHT22;4274;52.012;8.448;2023-09-30T14:02:47;21.00;99.90
8475;DHT22;4274;52.012;8.448;2023-09-30T14:05:13;20.70;99.90
8475;DHT22;4274;52.012;8.448;2023-09-30T14:07:39;20.50;99.90
8475;DHT22;4274;52.012;8.448;2023-09-30T14:10:06;20.40;99.90
8475;DHT22;4274;52.012;8.448;2023-09-30T14:12:32;20.30;99.90
8475;DHT22;4274;52.012;8.448;2023-09-30T14:14:57;20.40;99.90
8475;DHT22;4274;52.012;8.448;2023-09-30T14:17:23;20.50;99.90
8475;DHT22;4274;52.012;8.448;2023-09-30T14:19:48;20.60;99.90
8475;DHT22;4274;52.012;8.448;2023-09-30T14:22:15;20.60;99.90
8475;DHT22;4274;52.012;8.448;2023-09-30T14:24:40;20.60;99.90
8475;DHT22;4274;52.012;8.448;2023-09-30T14:27:06;20.40;99.90
8475;DHT22;4274;52.012;8.448;2023-09-30T14:29:32;20.10;99.90
8475;DHT22;4274;52.012;8.448;2023-09-30T14:31:58;20.10;99.90
8475;DHT22;4274;52.012;8.448;2023-09-30T14:34:24;20.00;99.90
8475;DHT22;4274;52.012;8.448;2023-09-30T14:36:50;20.10;99.90
8475;DHT22;4274;52.012;8.448;2023-09-30T14:39:16;20.00;99.90
8475;DHT22;4274;52.012;8.448;2023-09-30T14:41:43;19.90;99.90
8475;DHT22;4274;52.012;8.448;2023-09-30T14:44:09;19.80;99.90
8475;DHT22;4274;52.012;8.448;2023-09-30T14:46:37;19.50;99.90
8475;DHT22;4274;52.012;8.448;2023-09-30T14:49:04;19.30;99.90
8475;DHT22;4274;52.012;8.448;2023-09-30T14:51:29;19.20;99.90
8475;DHT22;4274;52.012;8.448;2023-09-30T14:53:55;19.20;99.90
8475;DHT22;4274;52.012;8.448;2023-09-30T14:56:21;19.20;99.90
8475;DHT22;4274;52.012;8.448;2023-09-30T14:58:46;19.20;99.90
8475;DHT22;4274;52.012;8.448;2023-09-30T15:01:12;19.20;99.90
8475;DHT22;4274;52.012;8.448;2023-09-30T15:03:41;19.10;99.90
8475;DHT22;4274;52.012;8.448;2023-09-30T15:06:07;19.20;99.90
8475;DHT22;4274;52.012;8.448;2023-09-30T15:08:33;19.20;99.90
8475;DHT22;4274;52.012;8.448;2023-09-30T15:10:59;19.30;99.90
8475;DHT22;4274;52.012;8.448;2023-09-30T15:13:25;19.30;99.90
8475;DHT22;4274;52.012;8.448;2023-09-30T15:15:51;19.30;99.90
8475;DHT22;4274;52.012;8.448;2023-09-30T15:18:17;19.30;99.90
8475;DHT22;4274;52.012;8.448;2023-09-30T15:20:43;19.20;99.90
8475;DHT22;4274;52.012;8.448;2023-09-30T15:23:13;19.10;99.90
8475;DHT22;4274;52.012;8.448;2023-09-30T15:25:45;19.10;99.90
8475;DHT22;4274;52.012;8.448;2023-09-30T15:28:13;19.00;99.90
8475;DHT22;4274;52.012;8.448;2023-09-30T15:30:40;18.90;99.90
8475;DHT22;4274;52.012;8.448;2023-09-30T15:33:05;18.80;99.90
8475;DHT22;4274;52.012;8.448;2023-09-30T15:35:31;18.70;99.90
8475;DHT22;4274;52.012;8.448;2023-09-30T15:37:57;18.60;99.90
8475;DHT22;4274;52.012;8.448;2023-09-30T15:40:26;18.60;99.90
8475;DHT22;4274;52.012;8.448;2023-09-30T15:42:52;18.50;99.90
8475;DHT22;4274;52.012;8.448;2023-09-30T15:45:17;18.40;99.90
8475;DHT22;4274;52.012;8.448;2023-09-30T15:47:43;18.30;99.90
8475;DHT22;4274;52.012;8.448;2023-09-30T15:50:09;18.20;99.90
8475;DHT22;4274;52.012;8.448;2023-09-30T15:52:36;18.20;99.90
8475;DHT22;4274;52.012;8.448;2023-09-30T15:55:01;18.10;99.90
8475;DHT22;4274;52.012;8.448;2023-09-30T15:57:27;18.10;99.90
8475;DHT22;4274;52.012;8.448;2023-09-30T15:59:52;18.00;99.90
8475;DHT22;4274;52.012;8.448;2023-09-30T16:02:18;18.00;99.90
8475;DHT22;4274;52.012;8.448;2023-09-30T16:04:43;17.90;99.90
8475;DHT22;4274;52.012;8.448;2023-09-30T16:07:09;17.80;99.90
8475;DHT22;4274;52.012;8.448;2023-09-30T16:09:36;17.70;99.90
8475;DHT22;4274;52.012;8.448;2023-09-30T16:12:02;17.70;99.90
8475;DHT22;4274;52.012;8.448;2023-09-30T16:14:29;17.60;99.90
8475;DHT22;4274;52.012;8.448;2023-09-30T16:16:54;17.40;99.90
8475;DHT22;4274;52.012;8.448;2023-09-30T16:19:25;17.30;99.90
8475;DHT22;4274;52.012;8.448;2023-09-30T16:21:51;17.20;99.90